createdAt,value
2018-05-12T00:01:02.401Z,353
2018-05-12T00:02:09.611Z,354
2018-05-12T00:03:16.824Z,354
2018-05-12T00:04:24.030Z,354
2018-05-12T00:05:30.961Z,354
2018-05-12T00:06:38.167Z,353
2018-05-12T00:07:45.374Z,353
2018-05-12T00:08:52.598Z,354
2018-05-12T00:09:59.806Z,354
2018-05-12T00:11:07.016Z,353
2018-05-12T00:12:13.955Z,353
2018-05-12T00:13:21.163Z,354
2018-05-12T00:14:28.366Z,353
2018-05-12T00:15:35.636Z,353
2018-05-12T00:16:42.840Z,352
2018-05-12T00:17:50.044Z,353
2018-05-12T00:18:57.252Z,353
2018-05-12T00:20:04.462Z,352
2018-05-12T00:21:11.403Z,353
2018-05-12T00:22:18.614Z,353
2018-05-12T00:23:25.837Z,353
2018-05-12T00:24:33.040Z,352
2018-05-12T00:25:40.243Z,352
2018-05-12T00:26:47.451Z,351
2018-05-12T00:27:54.655Z,352
2018-05-12T00:29:01.861Z,351
2018-05-12T00:30:08.794Z,352
2018-05-12T00:31:15.726Z,352
2018-05-12T00:32:22.933Z,351
2018-05-12T00:33:30.138Z,351
2018-05-12T00:34:37.345Z,351
2018-05-12T00:35:44.548Z,351
2018-05-12T00:36:51.756Z,352
2018-05-12T00:37:58.962Z,352
2018-05-12T00:39:06.174Z,352
2018-05-12T00:40:13.446Z,353
2018-05-12T00:41:20.654Z,353
2018-05-12T00:42:27.873Z,352
2018-05-12T00:43:34.799Z,352
2018-05-12T00:44:42.008Z,353
2018-05-12T00:45:49.218Z,353
2018-05-12T00:46:56.418Z,354
2018-05-12T00:48:03.629Z,353
2018-05-12T00:49:10.848Z,354
2018-05-12T00:50:18.048Z,353
2018-05-12T00:51:25.256Z,353
2018-05-12T00:52:32.460Z,354
2018-05-12T00:53:39.670Z,355
2018-05-12T00:54:46.888Z,355
2018-05-12T00:55:54.099Z,355
2018-05-12T00:57:01.034Z,355
2018-05-12T00:58:08.239Z,355
2018-05-12T00:59:15.660Z,355
2018-05-12T01:00:22.868Z,356
2018-05-12T01:01:30.075Z,357
2018-05-12T01:02:37.286Z,357
2018-05-12T01:03:44.501Z,357
2018-05-12T01:04:51.699Z,356
2018-05-12T01:05:58.907Z,356
2018-05-12T01:07:06.109Z,357
2018-05-12T01:08:13.316Z,356
2018-05-12T01:09:20.524Z,356
2018-05-12T01:10:27.732Z,357
2018-05-12T01:11:34.942Z,357
2018-05-12T01:12:42.154Z,357
2018-05-12T01:13:49.397Z,356
2018-05-12T01:14:56.606Z,356
2018-05-12T01:16:03.254Z,356
2018-05-12T01:17:10.187Z,356
2018-05-12T01:18:17.390Z,355
2018-05-12T01:19:24.593Z,355
2018-05-12T01:20:31.523Z,354
2018-05-12T01:21:38.456Z,354
2018-05-12T01:22:45.655Z,354
2018-05-12T01:23:52.859Z,355
2018-05-12T01:25:00.074Z,354
2018-05-12T01:26:07.002Z,354
2018-05-12T01:27:14.207Z,355
2018-05-12T01:28:21.413Z,356
2018-05-12T01:29:28.618Z,356
2018-05-12T01:30:35.822Z,354
2018-05-12T01:31:43.023Z,355
2018-05-12T01:32:50.222Z,357
2018-05-12T01:33:57.422Z,356
2018-05-12T01:35:04.626Z,357
2018-05-12T01:36:11.836Z,358
2018-05-12T01:37:19.029Z,358
2018-05-12T01:38:26.232Z,359
2018-05-12T01:39:33.436Z,358
2018-05-12T01:40:40.650Z,357
2018-05-12T01:41:47.857Z,356
2018-05-12T01:42:54.818Z,357
2018-05-12T01:44:02.047Z,357
2018-05-12T01:45:09.254Z,358
2018-05-12T01:46:16.462Z,358
2018-05-12T01:47:23.387Z,357
2018-05-12T01:48:30.594Z,358
2018-05-12T01:49:37.798Z,357
2018-05-12T01:50:44.999Z,354
2018-05-12T01:51:52.204Z,354
2018-05-12T01:52:59.408Z,354
2018-05-12T01:54:06.615Z,351
2018-05-12T01:55:13.819Z,350
2018-05-12T01:56:21.090Z,349
2018-05-12T01:57:28.294Z,348
2018-05-12T01:58:35.217Z,348
2018-05-12T01:59:42.150Z,347
2018-05-12T02:00:49.079Z,347
2018-05-12T02:01:56.291Z,346
2018-05-12T02:03:03.523Z,345
2018-05-12T02:04:10.727Z,344
2018-05-12T02:05:17.664Z,343
2018-05-12T02:06:24.873Z,343
2018-05-12T02:07:31.799Z,342
2018-05-12T02:08:39.005Z,342
2018-05-12T02:09:46.214Z,341
2018-05-12T02:10:53.421Z,341
2018-05-12T02:12:00.341Z,340
2018-05-12T02:13:07.563Z,340
2018-05-12T02:14:14.773Z,339
2018-05-12T02:15:21.976Z,339
2018-05-12T02:16:29.179Z,338
2018-05-12T02:17:36.108Z,337
2018-05-12T02:18:43.311Z,338
2018-05-12T02:19:50.515Z,337
2018-05-12T02:20:57.445Z,336
2018-05-12T02:22:04.647Z,336
2018-05-12T02:23:11.850Z,335
2018-05-12T02:24:18.780Z,335
2018-05-12T02:25:25.983Z,334
2018-05-12T02:26:33.206Z,334
2018-05-12T02:27:40.142Z,334
2018-05-12T02:28:47.068Z,334
2018-05-12T02:29:54.275Z,334
2018-05-12T02:31:01.484Z,333
2018-05-12T02:32:08.691Z,332
2018-05-12T02:33:15.895Z,333
2018-05-12T02:34:22.841Z,333
2018-05-12T02:35:30.049Z,319
2018-05-12T02:36:37.249Z,322
2018-05-12T02:37:44.457Z,321
2018-05-12T02:38:51.674Z,322
2018-05-12T02:39:58.597Z,323
2018-05-12T02:41:05.527Z,323
2018-05-12T02:42:12.761Z,322
2018-05-12T02:43:19.952Z,325
2018-05-12T02:44:27.159Z,323
2018-05-12T02:45:34.359Z,323
2018-05-12T02:46:41.016Z,324
2018-05-12T02:47:48.220Z,325
2018-05-12T02:48:55.153Z,324
2018-05-12T02:50:02.362Z,324
2018-05-12T02:51:09.378Z,325
2018-05-12T02:52:16.580Z,324
2018-05-12T02:53:23.796Z,325
2018-05-12T02:54:30.987Z,325
2018-05-12T02:55:38.188Z,325
2018-05-12T02:56:45.389Z,325
2018-05-12T02:57:52.597Z,325
2018-05-12T02:58:59.801Z,324
2018-05-12T03:00:07.018Z,324
2018-05-12T03:01:14.224Z,323
2018-05-12T03:02:21.427Z,324
2018-05-12T03:03:28.638Z,324
2018-05-12T03:04:35.840Z,324
2018-05-12T03:05:43.040Z,324
2018-05-12T03:06:50.236Z,324
2018-05-12T03:07:57.445Z,324
2018-05-12T03:09:04.647Z,324
2018-05-12T03:10:11.848Z,324
2018-05-12T03:11:19.052Z,323
2018-05-12T03:12:26.258Z,323
2018-05-12T03:13:33.462Z,323
2018-05-12T03:14:40.664Z,323
2018-05-12T03:15:47.866Z,323
2018-05-12T03:16:55.069Z,323
2018-05-12T03:18:02.277Z,323
2018-05-12T03:19:09.209Z,323
2018-05-12T03:20:16.225Z,323
2018-05-12T03:21:23.425Z,322
2018-05-12T03:22:30.628Z,322
2018-05-12T03:23:37.831Z,323
2018-05-12T03:24:45.035Z,322
2018-05-12T03:25:52.241Z,323
2018-05-12T03:26:59.171Z,323
2018-05-12T03:28:06.100Z,322
2018-05-12T03:29:13.303Z,323
2018-05-12T03:30:20.238Z,322
2018-05-12T03:31:27.448Z,322
2018-05-12T03:32:34.372Z,322
2018-05-12T03:33:41.575Z,322
2018-05-12T03:34:48.782Z,323
2018-05-12T03:35:55.985Z,322
2018-05-12T03:37:03.195Z,322
2018-05-12T03:38:10.115Z,322
2018-05-12T03:39:17.317Z,323
2018-05-12T03:40:24.519Z,327
2018-05-12T03:41:31.732Z,325
2018-05-12T03:42:39.020Z,321
2018-05-12T03:43:46.218Z,321
2018-05-12T03:44:53.418Z,322
2018-05-12T03:46:00.624Z,323
2018-05-12T03:47:07.557Z,324
2018-05-12T03:48:14.763Z,323
2018-05-12T03:49:21.687Z,322
2018-05-12T03:50:28.893Z,323
2018-05-12T22:00:07.130Z,398
2018-05-12T22:01:14.064Z,384
2018-05-12T22:02:21.279Z,381
2018-05-12T22:03:28.491Z,380
2018-05-12T22:04:35.696Z,379
2018-05-12T22:05:42.902Z,378
2018-05-12T22:06:50.108Z,376
2018-05-12T22:07:57.163Z,376
2018-05-12T22:09:04.398Z,375
2018-05-12T22:10:11.606Z,376
2018-05-12T22:11:18.812Z,376
2018-05-12T22:12:26.026Z,375
2018-05-12T22:13:33.245Z,375
2018-05-12T22:14:40.454Z,374
2018-05-12T22:15:47.663Z,375
2018-05-12T22:16:54.871Z,375
2018-05-12T22:18:02.078Z,375
2018-05-12T22:19:09.012Z,374
2018-05-12T22:20:16.221Z,373
2018-05-12T22:21:23.157Z,373
2018-05-12T22:22:30.367Z,373
2018-05-12T22:23:37.574Z,374
2018-05-12T22:24:44.505Z,373
2018-05-12T22:25:51.713Z,373
2018-05-12T22:26:58.924Z,373
2018-05-12T22:28:06.134Z,372
2018-05-12T22:29:13.353Z,373
2018-05-12T22:30:20.018Z,372
2018-05-12T22:31:27.226Z,372
2018-05-12T22:32:34.434Z,372
2018-05-12T22:33:41.645Z,372
2018-05-12T22:34:48.855Z,371
2018-05-12T22:35:56.066Z,371
2018-05-12T22:37:03.273Z,370
2018-05-12T22:38:10.478Z,370
2018-05-12T22:39:17.388Z,371
2018-05-12T22:40:24.594Z,370
2018-05-12T22:41:31.804Z,371
2018-05-12T22:42:39.004Z,370
2018-05-12T22:43:46.216Z,370
2018-05-12T22:44:53.431Z,369
2018-05-12T22:46:00.646Z,370
2018-05-12T22:47:07.852Z,370
2018-05-12T22:48:14.786Z,370
2018-05-12T22:49:21.998Z,370
2018-05-12T22:50:29.205Z,370
2018-05-12T22:51:36.414Z,370
2018-05-12T22:52:43.345Z,370
2018-05-12T22:53:50.551Z,370
2018-05-12T22:54:57.760Z,370
2018-05-12T22:56:04.693Z,370
2018-05-12T22:57:11.904Z,369
2018-05-12T22:58:19.114Z,370
2018-05-12T22:59:26.329Z,370
2018-05-12T23:00:33.540Z,369
2018-05-12T23:01:40.747Z,369
2018-05-12T23:02:47.956Z,369
2018-05-12T23:03:54.918Z,369
2018-05-12T23:05:01.859Z,369
2018-05-12T23:06:09.065Z,369
2018-05-12T23:07:16.279Z,369
2018-05-12T23:08:23.489Z,369
2018-05-12T23:09:30.421Z,369
2018-05-12T23:10:37.636Z,369
2018-05-12T23:11:44.850Z,369
2018-05-12T23:12:51.785Z,369
2018-05-12T23:13:59.059Z,369
2018-05-12T23:15:06.266Z,369
2018-05-12T23:16:13.477Z,369
2018-05-12T23:17:20.682Z,369
2018-05-12T23:18:28.000Z,369
2018-05-12T23:19:35.244Z,369
2018-05-12T23:20:42.449Z,368
2018-05-12T23:21:49.660Z,368
2018-05-12T23:22:56.869Z,368
2018-05-12T23:24:04.086Z,368
2018-05-12T23:25:11.298Z,368
2018-05-12T23:26:18.511Z,368
2018-05-12T23:27:25.715Z,368
2018-05-12T23:28:32.921Z,368
2018-05-12T23:29:39.868Z,368
2018-05-12T23:30:47.086Z,369
2018-05-12T23:31:54.295Z,369
2018-05-12T23:33:01.501Z,370
2018-05-12T23:34:08.712Z,369
2018-05-12T23:35:15.389Z,369
2018-05-12T23:36:22.592Z,369
2018-05-12T23:37:29.802Z,370
2018-05-12T23:38:37.011Z,369
2018-05-12T23:39:44.217Z,369
2018-05-12T23:40:51.152Z,369
2018-05-12T23:41:58.367Z,369
2018-05-12T23:43:05.575Z,369
2018-05-12T23:44:12.781Z,369
2018-05-12T23:45:19.987Z,369
2018-05-12T23:46:27.195Z,369
2018-05-12T23:47:34.133Z,369
2018-05-12T23:48:41.088Z,369
2018-05-12T23:49:48.309Z,369
2018-05-12T23:50:55.518Z,369
2018-05-12T23:52:02.728Z,369
2018-05-12T23:53:09.664Z,369
2018-05-12T23:54:16.870Z,369
2018-05-12T23:55:24.081Z,370
2018-05-12T23:56:31.289Z,370
2018-05-12T23:57:38.492Z,369
2018-05-12T23:58:45.700Z,369
2018-05-12T23:59:52.907Z,370
